Time;durP1;ratioP1;P1;durP2;ratioP2;P2;SDS_P1;SDS_P2;PMS_P1;PMS_P2;Temp;Humidity;BMP_temperature;BMP_pressure;BME280_temperature;BME280_humidity;BME280_pressure;Samples;Min_cycle;Max_cycle;Signal;HPM_P1;HPM_P2
2020/12/30 00:00:01;;;;;;;5.37;2.20;;;4.70;99.90;;;;;;5080672;28;20484;-51
2020/12/30 00:02:28;;;;;;;5.40;2.20;;;3.30;99.90;;;;;;5093085;28;20430;-51
2020/12/30 00:04:54;;;;;;;4.80;2.20;;;3.40;99.90;;;;;;5081671;28;20426;-51
2020/12/30 00:07:20;;;;;;;6.07;2.40;;;6.10;99.90;;;;;;5079822;28;20521;-52
2020/12/30 00:09:46;;;;;;;5.03;2.37;;;3.70;99.90;;;;;;5076034;28;20557;-52
2020/12/30 00:12:11;;;;;;;4.82;2.30;;;5.80;99.90;;;;;;5078715;28;20403;-58
2020/12/30 00:14:37;;;;;;;4.43;2.15;;;5.30;99.90;;;;;;5088134;28;20394;-52
2020/12/30 00:17:03;;;;;;;4.67;2.20;;;4.50;99.90;;;;;;5105702;28;20918;-51
2020/12/30 00:19:29;;;;;;;4.85;2.40;;;5.20;99.90;;;;;;5073582;28;20431;-51
2020/12/30 00:21:55;;;;;;;5.40;2.27;;;3.50;99.90;;;;;;5080680;28;20391;-51
2020/12/30 00:24:20;;;;;;;4.30;2.10;;;3.50;99.90;;;;;;5088813;28;20491;-57
2020/12/30 00:26:46;;;;;;;5.50;2.30;;;3.60;99.90;;;;;;5080874;28;20380;-51
2020/12/30 00:29:12;;;;;;;5.07;2.10;;;4.70;99.90;;;;;;5091673;28;20406;-57
2020/12/30 00:31:38;;;;;;;4.60;1.87;;;3.60;99.90;;;;;;5082796;28;20398;-51
2020/12/30 00:34:03;;;;;;;4.40;2.33;;;3.60;99.90;;;;;;5088675;28;20856;-51
2020/12/30 00:36:29;;;;;;;4.80;2.30;;;3.60;99.90;;;;;;5084950;28;20394;-54
2020/12/30 00:38:54;;;;;;;5.73;2.30;;;5.20;99.90;;;;;;5081912;28;20767;-51
2020/12/30 00:41:20;;;;;;;5.30;2.30;;;3.40;99.90;;;;;;5073877;28;20401;-52
2020/12/30 00:43:46;;;;;;;4.55;2.20;;;3.30;99.90;;;;;;5083462;28;20871;-51
2020/12/30 00:46:18;;;;;;;5.93;2.10;;;4.60;99.90;;;;;;5084215;28;20386;-57
2020/12/30 00:48:44;;;;;;;4.20;2.15;;;6.20;99.90;;;;;;5086150;28;20386;-51
2020/12/30 00:51:16;;;;;;;4.10;2.00;;;3.40;99.90;;;;;;5090627;28;20424;-53
2020/12/30 00:53:42;;;;;;;4.83;2.17;;;5.30;99.90;;;;;;5079536;28;20896;-51
2020/12/30 00:56:09;;;;;;;4.72;2.40;;;3.40;99.90;;;;;;5087654;28;20500;-51
2020/12/30 00:58:35;;;;;;;5.60;2.70;;;5.10;99.90;;;;;;5081628;28;20405;-52
2020/12/30 01:01:03;;;;;;;6.18;3.30;;;4.50;99.90;;;;;;5088168;28;20397;-51
2020/12/30 01:03:28;;;;;;;6.10;2.50;;;5.30;99.90;;;;;;5080003;28;20386;-49
2020/12/30 01:05:55;;;;;;;6.73;2.40;;;3.60;99.90;;;;;;5092831;28;20386;-49
2020/12/30 01:08:20;;;;;;;4.35;1.80;;;6.50;99.90;;;;;;5084850;28;20413;-52
2020/12/30 01:10:46;;;;;;;5.33;2.30;;;3.70;99.90;;;;;;5083429;28;20394;-50
2020/12/30 01:13:12;;;;;;;5.10;2.60;;;3.80;99.90;;;;;;5081006;28;20495;-56
2020/12/30 01:15:37;;;;;;;4.40;2.00;;;5.20;99.90;;;;;;5084449;28;20511;-49
2020/12/30 01:18:03;;;;;;;4.47;2.00;;;4.40;99.90;;;;;;5078241;28;20396;-49
2020/12/30 01:20:28;;;;;;;4.60;2.20;;;3.90;99.90;;;;;;5090223;28;20420;-48
2020/12/30 01:22:54;;;;;;;4.47;2.00;;;4.00;99.90;;;;;;5092265;28;20879;-49
2020/12/30 01:25:20;;;;;;;4.80;2.00;;;4.10;99.90;;;;;;5077464;28;20432;-48
2020/12/30 01:27:45;;;;;;;4.60;1.90;;;5.00;99.90;;;;;;5087586;28;20378;-51
2020/12/30 01:30:11;;;;;;;4.50;2.03;;;4.60;99.90;;;;;;5077638;28;20475;-57
2020/12/30 01:32:36;;;;;;;5.20;2.40;;;4.20;99.90;;;;;;5091907;28;20386;-50
2020/12/30 01:35:02;;;;;;;6.00;2.08;;;4.50;99.90;;;;;;5088390;28;20407;-51
2020/12/30 01:37:28;;;;;;;6.00;2.30;;;4.10;99.90;;;;;;5078227;28;20392;-51
2020/12/30 01:39:53;;;;;;;5.57;2.37;;;4.10;99.90;;;;;;5091782;28;20463;-50
2020/12/30 01:42:19;;;;;;;5.35;2.40;;;4.10;99.90;;;;;;5086065;28;20399;-51
2020/12/30 01:44:45;;;;;;;5.20;2.60;;;5.20;99.90;;;;;;5080926;28;20406;-50
2020/12/30 01:47:11;;;;;;;5.67;2.10;;;4.40;99.90;;;;;;5084111;28;20413;-57
2020/12/30 01:49:36;;;;;;;4.70;2.17;;;4.10;99.90;;;;;;5082512;28;20897;-50
2020/12/30 01:52:02;;;;;;;5.47;2.40;;;4.90;99.90;;;;;;5086039;28;20409;-50
2020/12/30 01:54:28;;;;;;;4.60;2.20;;;4.00;99.90;;;;;;5079812;28;20406;-50
2020/12/30 01:56:54;;;;;;;4.32;2.20;;;4.00;99.90;;;;;;5083629;28;20394;-50
2020/12/30 01:59:21;;;;;;;5.90;3.10;;;3.90;99.90;;;;;;5083548;28;20377;-50
2020/12/30 02:01:52;;;;;;;7.05;2.53;;;3.90;99.90;;;;;;5090432;28;20391;-50
2020/12/30 02:04:24;;;;;;;5.63;2.95;;;3.90;99.90;;;;;;5075764;28;20494;-50
2020/12/30 02:06:49;;;;;;;5.10;2.40;;;4.50;99.90;;;;;;5091551;28;20500;-50
2020/12/30 02:09:15;;;;;;;6.30;2.87;;;4.00;99.90;;;;;;5083231;28;20465;-52
2020/12/30 02:11:41;;;;;;;5.10;2.70;;;4.10;99.90;;;;;;5080989;28;20419;-50
2020/12/30 02:14:13;;;;;;;5.78;2.92;;;4.00;99.90;;;;;;5075996;28;20776;-51
2020/12/30 02:16:52;;;;;;;6.25;3.10;;;6.30;99.90;;;;;;5086533;28;20433;-51
2020/12/30 02:19:19;;;;;;;5.70;2.80;;;4.10;99.90;;;;;;5080676;28;20386;-51
2020/12/30 02:21:45;;;;;;;5.70;3.00;;;4.10;99.90;;;;;;5080840;28;20391;-51
2020/12/30 02:24:18;;;;;;;7.30;3.28;;;6.20;99.90;;;;;;5081858;28;20470;-58
2020/12/30 02:26:43;;;;;;;5.93;3.05;;;4.00;99.90;;;;;;5078471;28;20400;-51
2020/12/30 02:29:09;;;;;;;5.80;3.10;;;3.90;99.90;;;;;;5086329;28;20440;-51
2020/12/30 02:31:35;;;;;;;6.70;3.50;;;5.00;99.90;;;;;;5079397;28;20410;-51
2020/12/30 02:34:00;;;;;;;7.15;2.90;;;3.70;99.90;;;;;;5091118;28;20390;-51
2020/12/30 02:36:26;;;;;;;6.50;3.70;;;4.00;99.90;;;;;;5084899;28;20912;-51
2020/12/30 02:38:53;;;;;;;5.50;3.00;;;3.60;99.90;;;;;;5079191;28;20390;-50
2020/12/30 02:41:19;;;;;;;6.78;3.03;;;6.00;99.90;;;;;;5090077;28;20382;-49
2020/12/30 02:43:48;;;;;;;5.45;3.15;;;4.60;99.90;;;;;;5085252;28;20422;-52
2020/12/30 02:46:14;;;;;;;6.40;3.00;;;3.60;99.90;;;;;;5080009;28;20427;-57
2020/12/30 02:48:39;;;;;;;5.30;2.70;;;3.50;99.90;;;;;;5090778;28;20440;-51
2020/12/30 02:51:05;;;;;;;7.03;3.00;;;4.20;99.90;;;;;;5083353;28;20739;-53
2020/12/30 02:53:31;;;;;;;5.60;2.78;;;3.60;99.90;;;;;;5081324;28;20756;-52
2020/12/30 02:55:56;;;;;;;5.80;2.90;;;4.30;99.90;;;;;;5090662;28;20382;-51
2020/12/30 02:58:22;;;;;;;6.18;2.65;;;3.60;99.90;;;;;;5079745;28;20503;-50
2020/12/30 03:00:48;;;;;;;6.30;3.08;;;3.60;99.90;;;;;;5083975;28;20723;-54
2020/12/30 03:03:13;;;;;;;6.80;3.20;;;4.80;99.90;;;;;;5083903;28;20400;-56
2020/12/30 03:05:39;;;;;;;6.20;3.10;;;3.60;99.90;;;;;;5088879;28;20410;-54
2020/12/30 03:08:04;;;;;;;6.37;2.80;;;3.60;99.90;;;;;;5076231;28;20414;-51
2020/12/30 03:10:30;;;;;;;7.60;3.70;;;3.60;99.90;;;;;;5088163;28;21077;-51
2020/12/30 03:12:56;;;;;;;5.78;2.90;;;5.20;99.90;;;;;;5087655;28;20403;-51
2020/12/30 03:15:21;;;;;;;6.30;2.97;;;4.20;99.90;;;;;;5075747;28;20399;-52
2020/12/30 03:17:47;;;;;;;8.00;3.60;;;3.60;99.90;;;;;;5083791;28;20398;-51
2020/12/30 03:20:13;;;;;;;5.00;2.60;;;6.10;99.90;;;;;;5080354;28;20393;-58
2020/12/30 03:22:39;;;;;;;6.43;3.33;;;3.50;99.90;;;;;;5089941;28;20859;-52
2020/12/30 03:25:05;;;;;;;6.72;3.05;;;3.80;99.90;;;;;;5082318;28;20930;-52
2020/12/30 03:27:30;;;;;;;7.73;3.40;;;3.60;99.90;;;;;;5080714;28;20394;-51
2020/12/30 03:29:56;;;;;;;8.70;3.30;;;3.60;99.90;;;;;;5090424;28;20468;-53
2020/12/30 03:32:21;;;;;;;6.65;3.42;;;4.60;99.90;;;;;;5075398;28;20933;-53
2020/12/30 03:34:47;;;;;;;7.30;3.00;;;3.90;99.90;;;;;;5086053;28;20394;-52
2020/12/30 03:37:13;;;;;;;5.70;3.03;;;3.60;99.90;;;;;;5075981;28;20403;-59
2020/12/30 03:39:38;;;;;;;6.80;3.07;;;3.90;99.90;;;;;;5084493;28;20391;-52
2020/12/30 03:42:06;;;;;;;5.73;2.93;;;6.20;99.90;;;;;;5079190;28;20383;-51
2020/12/30 03:44:32;;;;;;;6.45;2.90;;;3.70;99.90;;;;;;5090372;28;20408;-52
2020/12/30 03:46:59;;;;;;;6.80;2.50;;;3.60;99.90;;;;;;5079908;28;20436;-52
2020/12/30 03:49:24;;;;;;;5.28;2.30;;;3.70;99.90;;;;;;5083052;28;20401;-51
2020/12/30 03:51:50;;;;;;;4.60;2.20;;;3.60;99.90;;;;;;5079030;28;20392;-51
2020/12/30 03:54:15;;;;;;;5.13;2.42;;;3.50;99.90;;;;;;5080541;28;20805;-56
2020/12/30 03:56:41;;;;;;;5.60;2.67;;;3.40;99.90;;;;;;5077065;28;20469;-49
2020/12/30 03:59:06;;;;;;;4.35;2.25;;;3.50;99.90;;;;;;5090182;28;20378;-49
2020/12/30 04:01:32;;;;;;;6.30;2.53;;;4.80;99.90;;;;;;5077355;28;20399;-49
2020/12/30 04:03:58;;;;;;;4.43;2.30;;;4.90;99.90;;;;;;5069413;28;20403;-49
2020/12/30 04:06:23;;;;;;;4.83;2.10;;;3.30;99.90;;;;;;5070324;28;20402;-51
2020/12/30 04:08:49;;;;;;;4.77;2.10;;;6.00;99.90;;;;;;5076139;28;20461;-49
2020/12/30 04:11:15;;;;;;;4.78;2.10;;;3.20;99.90;;;;;;5082364;28;20483;-56
2020/12/30 04:13:40;;;;;;;4.70;2.20;;;3.30;99.90;;;;;;5081186;28;20382;-49
2020/12/30 04:16:06;;;;;;;7.40;2.25;;;5.80;99.90;;;;;;5076551;28;20408;-49
2020/12/30 04:18:31;;;;;;;6.07;2.77;;;3.30;99.90;;;;;;5085779;28;20992;-50
2020/12/30 04:20:57;;;;;;;5.33;2.50;;;3.20;99.90;;;;;;5075605;28;20434;-49
2020/12/30 04:23:22;;;;;;;5.03;2.10;;;3.10;99.90;;;;;;5086852;28;20385;-50
2020/12/30 04:25:48;;;;;;;6.93;2.80;;;3.00;99.90;;;;;;5079470;28;20427;-49
2020/12/30 04:28:17;;;;;;;5.25;2.10;;;4.60;99.90;;;;;;5069038;28;20387;-56
2020/12/30 04:30:43;;;;;;;4.50;2.20;;;3.00;99.90;;;;;;5067583;28;20443;-49
2020/12/30 04:33:12;;;;;;;5.32;2.35;;;5.60;99.90;;;;;;5084466;28;20435;-51
2020/12/30 04:35:37;;;;;;;6.80;2.30;;;2.90;99.90;;;;;;5079865;28;20398;-51
2020/12/30 04:38:04;;;;;;;5.60;2.53;;;3.20;99.90;;;;;;5070282;28;20384;-51
2020/12/30 04:40:30;;;;;;;5.40;2.40;;;3.00;99.90;;;;;;5082482;28;20410;-51
2020/12/30 04:43:00;;;;;;;5.23;2.50;;;3.00;99.90;;;;;;5070760;28;20403;-51
2020/12/30 04:45:27;;;;;;;6.97;2.33;;;3.00;99.90;;;;;;5079368;28;20877;-49
2020/12/30 04:47:55;;;;;;;5.35;2.20;;;3.10;99.90;;;;;;5070889;28;20403;-49
2020/12/30 04:50:22;;;;;;;6.93;2.55;;;4.40;99.90;;;;;;5078506;28;20396;-49
2020/12/30 04:52:49;;;;;;;7.90;2.40;;;3.70;99.90;;;;;;5092907;28;20426;-49
2020/12/30 04:55:21;;;;;;;5.45;2.10;;;3.00;99.90;;;;;;5087945;28;20551;-58
2020/12/30 04:57:58;;;;;;;5.30;2.35;;;3.30;99.90;;;;;;5083234;28;20382;-49
2020/12/30 05:00:25;;;;;;;5.30;3.25;;;4.40;99.90;;;;;;5072373;28;20402;-50
2020/12/30 05:02:52;;;;;;;5.70;2.60;;;2.90;99.90;;;;;;5084083;28;20871;-49
2020/12/30 05:05:19;;;;;;;6.43;2.70;;;2.90;99.90;;;;;;5073330;28;20423;-50
2020/12/30 05:07:45;;;;;;;6.05;2.53;;;4.10;99.90;;;;;;5081692;28;20852;-49
2020/12/30 05:10:14;;;;;;;5.15;2.65;;;4.70;99.90;;;;;;5092426;28;20382;-49
2020/12/30 05:12:41;;;;;;;4.85;2.38;;;2.90;99.90;;;;;;5085948;28;20738;-49
2020/12/30 05:15:07;;;;;;;6.38;2.38;;;2.90;99.90;;;;;;5082832;28;20391;-50
2020/12/30 05:17:36;;;;;;;7.55;3.00;;;2.90;99.90;;;;;;5083961;28;20402;-49
2020/12/30 05:20:07;;;;;;;5.97;2.75;;;4.90;99.90;;;;;;5083144;28;20719;-49
2020/12/30 05:22:32;;;;;;;7.10;2.50;;;5.50;99.90;;;;;;5078896;28;20486;-49
2020/12/30 05:25:05;;;;;;;5.43;3.03;;;2.80;99.90;;;;;;5081833;28;20897;-49
2020/12/30 05:27:31;;;;;;;7.18;3.05;;;2.80;99.90;;;;;;5071370;28;20372;-49
2020/12/30 05:29:58;;;;;;;8.75;3.10;;;5.80;99.90;;;;;;5072153;28;20379;-49
2020/12/30 05:32:25;;;;;;;5.60;2.60;;;5.20;99.90;;;;;;5073408;28;20900;-50
2020/12/30 05:34:54;;;;;;;7.47;3.67;;;5.30;99.90;;;;;;5082742;28;20773;-49
2020/12/30 05:37:34;;;;;;;7.30;3.10;;;2.70;99.90;;;;;;5084139;28;20394;-51
2020/12/30 05:40:00;;;;;;;6.95;3.50;;;2.70;99.90;;;;;;5078622;28;20395;-49
2020/12/30 05:42:26;;;;;;;7.03;3.60;;;4.90;99.90;;;;;;5071549;28;20437;-49
2020/12/30 05:44:54;;;;;;;6.28;3.35;;;4.40;99.90;;;;;;5077486;28;20412;-49
2020/12/30 05:47:25;;;;;;;6.05;2.88;;;2.60;99.90;;;;;;5074217;28;20398;-49
2020/12/30 05:49:53;;;;;;;7.13;3.47;;;2.60;99.90;;;;;;5074742;28;20396;-52
2020/12/30 05:52:26;;;;;;;6.63;3.28;;;3.80;99.90;;;;;;5082279;28;20378;-50
2020/12/30 05:54:59;;;;;;;7.07;3.50;;;2.70;99.90;;;;;;5080731;28;20899;-49
2020/12/30 05:57:29;;;;;;;8.13;2.90;;;2.70;99.90;;;;;;5080980;28;20396;-51
2020/12/30 05:59:59;;;;;;;7.80;3.70;;;3.70;99.90;;;;;;5075732;28;20380;-50
2020/12/30 06:02:27;;;;;;;6.53;3.40;;;3.90;99.90;;;;;;5071696;28;20384;-50
2020/12/30 06:05:18;;;;;;;6.60;3.70;;;3.20;99.90;;;;;;5077805;28;20458;-49
2020/12/30 06:07:49;;;;;;;7.90;3.60;;;2.90;99.90;;;;;;5086133;28;20863;-49
2020/12/30 06:10:19;;;;;;;8.95;3.85;;;3.00;99.90;;;;;;5089838;28;20386;-56
2020/12/30 06:12:48;;;;;;;7.90;3.65;;;3.00;99.90;;;;;;5076287;28;20423;-52
2020/12/30 06:15:15;;;;;;;6.55;3.53;;;3.00;99.90;;;;;;5072401;28;20792;-56
2020/12/30 06:17:58;;;;;;;7.80;4.13;;;3.00;99.90;;;;;;5081309;28;20417;-50
2020/12/30 06:20:31;;;;;;;6.10;3.50;;;2.90;99.90;;;;;;5077885;28;20477;-50
2020/12/30 06:23:01;;;;;;;6.78;3.53;;;3.00;99.90;;;;;;5088878;28;20435;-49
2020/12/30 06:25:29;;;;;;;7.00;3.17;;;3.10;99.90;;;;;;5090142;28;20457;-50
2020/12/30 06:27:55;;;;;;;8.75;3.13;;;3.10;99.90;;;;;;5077521;28;20436;-49
2020/12/30 06:30:22;;;;;;;6.07;3.17;;;3.10;99.90;;;;;;5086414;28;20380;-49
2020/12/30 06:32:49;;;;;;;8.20;3.08;;;3.00;99.90;;;;;;5076958;28;20396;-49
2020/12/30 06:35:24;;;;;;;6.00;2.80;;;3.00;99.90;;;;;;5085728;28;20415;-56
2020/12/30 06:37:50;;;;;;;6.63;2.97;;;3.00;99.90;;;;;;5080665;28;20384;-49
2020/12/30 06:40:17;;;;;;;4.93;2.60;;;4.20;99.90;;;;;;5076170;28;20405;-55
2020/12/30 06:42:44;;;;;;;5.90;3.00;;;3.70;99.90;;;;;;5083410;28;20378;-49
2020/12/30 06:45:13;;;;;;;6.13;2.90;;;2.60;99.90;;;;;;5083732;28;20472;-49
2020/12/30 06:48:00;;;;;;;5.70;2.60;;;2.60;99.90;;;;;;5081090;28;20418;-49
2020/12/30 06:50:27;;;;;;;6.40;2.63;;;2.60;99.90;;;;;;5088501;28;20374;-49
2020/12/30 06:52:53;;;;;;;6.38;2.60;;;2.60;99.90;;;;;;5068908;28;20408;-49
2020/12/30 06:55:45;;;;;;;6.33;2.57;;;4.90;99.90;;;;;;5089673;28;20403;-52
2020/12/30 06:58:46;;;;;;;6.50;2.63;;;2.80;99.90;;;;;;5075190;28;20759;-49
2020/12/30 07:01:13;;;;;;;5.68;2.40;;;2.70;99.90;;;;;;5089197;28;20382;-50
2020/12/30 07:03:40;;;;;;;4.50;2.30;;;5.70;99.90;;;;;;5075732;28;20408;-49
2020/12/30 07:06:24;;;;;;;4.90;2.42;;;2.70;99.90;;;;;;5088860;28;20386;-51
2020/12/30 07:08:51;;;;;;;5.68;2.03;;;5.10;99.90;;;;;;5090097;28;20400;-51
2020/12/30 07:11:36;;;;;;;5.82;2.40;;;5.80;99.90;;;;;;5098522;28;20385;-58
2020/12/30 07:14:14;;;;;;;5.07;2.47;;;3.00;99.90;;;;;;5080784;28;20378;-52
2020/12/30 07:16:43;;;;;;;6.50;2.40;;;3.00;99.90;;;;;;5076071;28;20391;-51
2020/12/30 07:19:11;;;;;;;5.33;2.30;;;4.20;99.90;;;;;;5089520;28;20378;-53
2020/12/30 07:21:57;;;;;;;5.57;2.10;;;3.70;99.90;;;;;;5084540;28;20449;-52
2020/12/30 07:24:29;;;;;;;6.88;2.80;;;5.30;99.90;;;;;;5079800;28;20907;-51
2020/12/30 07:27:00;;;;;;;5.45;2.70;;;3.40;99.90;;;;;;5089903;28;20378;-51
2020/12/30 07:29:26;;;;;;;6.10;2.97;;;5.30;99.90;;;;;;5082030;28;20761;-57
2020/12/30 07:31:55;;;;;;;7.40;2.30;;;3.50;99.90;;;;;;5084341;28;20976;-51
2020/12/30 07:34:23;;;;;;;5.33;2.20;;;3.60;99.90;;;;;;5079663;28;20896;-51
2020/12/30 07:36:50;;;;;;;5.23;2.20;;;4.20;99.90;;;;;;5082318;28;20373;-51
2020/12/30 07:39:21;;;;;;;5.78;2.70;;;3.60;99.90;;;;;;5086758;28;20383;-59
2020/12/30 07:41:47;;;;;;;9.23;3.38;;;4.80;99.90;;;;;;5075040;28;20494;-52
2020/12/30 07:44:13;;;;;;;9.30;3.40;;;3.80;99.90;;;;;;5088993;28;20492;-52
2020/12/30 07:46:39;;;;;;;5.50;2.40;;;3.70;99.90;;;;;;5087668;28;20397;-52
2020/12/30 07:49:08;;;;;;;6.03;2.63;;;3.80;99.90;;;;;;5073690;28;20406;-52
2020/12/30 07:51:35;;;;;;;6.20;2.45;;;3.80;99.90;;;;;;5078118;28;20665;-51
2020/12/30 07:54:00;;;;;;;6.85;3.00;;;4.00;99.90;;;;;;5075988;28;20424;-51
2020/12/30 07:56:26;;;;;;;6.13;2.88;;;4.00;99.90;;;;;;5073746;28;20483;-51
2020/12/30 07:58:52;;;;;;;8.45;3.60;;;4.00;99.90;;;;;;5081540;28;20384;-51
2020/12/30 08:01:19;;;;;;;10.68;5.28;;;5.00;99.90;;;;;;5078329;28;20455;-54
2020/12/30 08:03:45;;;;;;;8.93;4.80;;;4.10;99.90;;;;;;5078066;28;20437;-51
2020/12/30 08:06:11;;;;;;;10.15;4.53;;;4.20;99.90;;;;;;5075508;28;20397;-51
2020/12/30 08:08:47;;;;;;;8.85;4.30;;;4.30;99.90;;;;;;5072305;28;20463;-51
2020/12/30 08:11:20;;;;;;;6.90;3.75;;;6.30;99.90;;;;;;5070378;28;20745;-51
2020/12/30 08:13:46;;;;;;;9.70;4.30;;;4.40;99.90;;;;;;5075743;28;20431;-54
2020/12/30 08:16:14;;;;;;;11.00;5.05;;;4.50;99.90;;;;;;5073625;28;20420;-51
2020/12/30 08:18:51;;;;;;;11.65;4.55;;;4.50;99.90;;;;;;5077526;28;20387;-50
2020/12/30 08:21:21;;;;;;;7.68;3.60;;;4.50;99.90;;;;;;5072012;28;20865;-58
2020/12/30 08:23:47;;;;;;;5.63;2.70;;;6.00;99.90;;;;;;5079468;28;20443;-51
2020/12/30 08:26:13;;;;;;;7.25;3.30;;;4.40;99.90;;;;;;5077654;28;20412;-52
2020/12/30 08:28:40;;;;;;;6.90;3.07;;;4.40;99.90;;;;;;5080234;28;20391;-50
2020/12/30 08:31:14;;;;;;;6.38;2.80;;;4.50;99.90;;;;;;5075245;28;20950;-50
2020/12/30 08:33:41;;;;;;;6.33;2.83;;;4.40;99.90;;;;;;5089701;28;20469;-51
2020/12/30 08:36:21;;;;;;;7.18;3.00;;;5.80;99.90;;;;;;5075442;28;20380;-53
2020/12/30 08:38:51;;;;;;;6.82;2.80;;;4.50;99.90;;;;;;5078548;28;20392;-53
2020/12/30 08:41:23;;;;;;;5.32;2.65;;;4.70;99.90;;;;;;5080118;28;20393;-58
2020/12/30 08:43:56;;;;;;;6.20;2.88;;;4.60;99.90;;;;;;5081480;28;20394;-52
2020/12/30 08:46:26;;;;;;;6.97;2.90;;;6.20;99.90;;;;;;5086331;28;20374;-51
2020/12/30 08:48:53;;;;;;;7.10;2.90;;;4.70;99.90;;;;;;5083723;28;20394;-51
2020/12/30 08:51:33;;;;;;;6.32;2.97;;;4.80;99.90;;;;;;5088407;28;20413;-52
2020/12/30 08:53:59;;;;;;;5.90;2.70;;;4.90;99.90;;;;;;5079274;28;20418;-51
2020/12/30 08:56:26;;;;;;;5.55;2.85;;;4.90;99.90;;;;;;5081293;28;20480;-53
2020/12/30 08:58:57;;;;;;;8.60;2.63;;;5.20;99.90;;;;;;5082847;28;20517;-52
2020/12/30 09:01:25;;;;;;;6.40;2.42;;;5.00;99.90;;;;;;5088138;28;20799;-51
2020/12/30 09:03:51;;;;;;;6.70;2.72;;;5.00;99.90;;;;;;5081463;28;20457;-55
2020/12/30 09:06:30;;;;;;;6.47;3.20;;;4.90;99.90;;;;;;5084522;28;20380;-59
2020/12/30 09:09:07;;;;;;;5.93;3.40;;;4.70;99.90;;;;;;5084768;28;20398;-51
2020/12/30 09:11:32;;;;;;;6.40;2.72;;;4.70;99.90;;;;;;5083925;28;20378;-51
2020/12/30 09:13:58;;;;;;;7.53;2.90;;;4.90;99.90;;;;;;5081114;28;20398;-50
2020/12/30 09:16:24;;;;;;;6.60;3.40;;;4.50;99.90;;;;;;5088749;28;20439;-51
2020/12/30 09:18:50;;;;;;;7.18;3.35;;;4.50;99.90;;;;;;5082471;28;20817;-50
2020/12/30 09:21:25;;;;;;;6.45;2.70;;;4.50;99.90;;;;;;5081559;28;20450;-59
2020/12/30 09:23:51;;;;;;;6.38;3.00;;;4.50;99.90;;;;;;5078047;28;20392;-53
2020/12/30 09:26:29;;;;;;;6.63;3.40;;;4.50;99.90;;;;;;5083935;28;20420;-58
2020/12/30 09:28:56;;;;;;;6.70;2.65;;;4.60;99.90;;;;;;5080845;28;20396;-50
2020/12/30 09:31:22;;;;;;;6.27;3.07;;;5.20;99.90;;;;;;5085382;28;20404;-50
2020/12/30 09:33:47;;;;;;;6.38;3.10;;;4.50;99.90;;;;;;5082748;28;20826;-50
2020/12/30 09:36:14;;;;;;;11.95;5.05;;;4.50;99.90;;;;;;5088217;28;20443;-54
2020/12/30 09:38:40;;;;;;;8.68;5.00;;;4.50;99.90;;;;;;5079305;28;20735;-53
2020/12/30 09:41:13;;;;;;;10.15;6.18;;;4.60;99.90;;;;;;5081465;28;20398;-50
2020/12/30 09:43:45;;;;;;;9.15;4.60;;;7.00;99.90;;;;;;5077694;28;20449;-50
2020/12/30 09:46:19;;;;;;;8.10;3.70;;;6.80;99.90;;;;;;5088144;28;20378;-50
2020/12/30 09:48:44;;;;;;;11.32;6.57;;;4.90;99.90;;;;;;5078539;28;20742;-51
2020/12/30 09:51:10;;;;;;;9.00;5.10;;;4.80;99.90;;;;;;5084102;28;20390;-49
2020/12/30 09:53:35;;;;;;;7.63;3.63;;;4.80;99.90;;;;;;5085441;28;20428;-50
2020/12/30 09:56:01;;;;;;;7.77;3.53;;;4.90;99.90;;;;;;5081786;28;20997;-55
2020/12/30 09:58:27;;;;;;;8.65;4.97;;;5.00;99.90;;;;;;5084252;28;20465;-50
2020/12/30 10:00:52;;;;;;;6.10;3.00;;;5.00;99.90;;;;;;5088389;28;20390;-49
2020/12/30 10:03:18;;;;;;;9.27;6.30;;;6.00;99.90;;;;;;5081765;28;20410;-50
2020/12/30 10:05:43;;;;;;;9.05;4.20;;;5.10;99.90;;;;;;5085486;28;20398;-50
2020/12/30 10:08:09;;;;;;;8.97;4.20;;;5.10;99.90;;;;;;5079455;28;20401;-50
2020/12/30 10:10:34;;;;;;;11.23;5.57;;;5.30;99.90;;;;;;5077882;28;20718;-50
2020/12/30 10:13:00;;;;;;;9.17;5.90;;;5.30;99.90;;;;;;5078011;28;20745;-50
2020/12/30 10:15:27;;;;;;;7.07;3.93;;;6.50;99.90;;;;;;5075138;28;20723;-53
2020/12/30 10:17:53;;;;;;;7.78;4.22;;;6.40;99.90;;;;;;5088237;28;20464;-51
2020/12/30 10:20:18;;;;;;;8.37;3.77;;;6.00;99.90;;;;;;5079322;28;20469;-61
2020/12/30 10:22:45;;;;;;;8.13;4.40;;;6.50;99.90;;;;;;5083561;28;20483;-52
2020/12/30 10:25:12;;;;;;;7.75;3.90;;;5.90;99.90;;;;;;5081240;28;20462;-50
2020/12/30 10:27:38;;;;;;;6.90;3.40;;;6.00;99.90;;;;;;5081225;28;20376;-50
2020/12/30 10:30:06;;;;;;;10.73;6.10;;;6.10;99.90;;;;;;5078633;28;20474;-51
2020/12/30 10:32:31;;;;;;;7.30;4.07;;;6.20;99.90;;;;;;5071364;28;20371;-50
2020/12/30 10:34:57;;;;;;;5.75;2.50;;;6.20;99.90;;;;;;5080936;28;20402;-51
2020/12/30 10:37:23;;;;;;;5.75;3.08;;;6.30;99.90;;;;;;5078182;28;20770;-53
2020/12/30 10:39:49;;;;;;;7.27;3.10;;;6.40;99.90;;;;;;5084440;28;20422;-51
2020/12/30 10:42:15;;;;;;;9.13;3.17;;;6.30;99.90;;;;;;5085352;28;20473;-51
2020/12/30 10:44:41;;;;;;;6.53;2.92;;;6.90;99.90;;;;;;5079991;28;20412;-49
2020/12/30 10:47:07;;;;;;;8.40;3.77;;;6.00;99.90;;;;;;5076962;28;20815;-50
2020/12/30 10:49:32;;;;;;;7.35;3.97;;;5.90;99.90;;;;;;5086637;28;20747;-49
2020/12/30 10:51:58;;;;;;;7.13;4.00;;;5.80;99.90;;;;;;5081571;28;20406;-54
2020/12/30 10:54:23;;;;;;;8.13;5.13;;;5.70;99.90;;;;;;5085194;28;20402;-49
2020/12/30 10:56:54;;;;;;;9.27;3.30;;;5.70;99.90;;;;;;5082369;28;20467;-50
2020/12/30 10:59:20;;;;;;;6.03;2.78;;;5.70;99.90;;;;;;5086810;28;20847;-49
2020/12/30 11:01:50;;;;;;;6.43;2.60;;;5.80;99.90;;;;;;5082058;28;20859;-49
2020/12/30 11:04:16;;;;;;;5.60;2.70;;;5.90;99.90;;;;;;5084114;28;20421;-49
2020/12/30 11:06:42;;;;;;;6.70;3.17;;;6.70;99.90;;;;;;5079179;28;20394;-49
2020/12/30 11:09:08;;;;;;;10.35;4.75;;;6.00;99.90;;;;;;5085380;28;20468;-49
2020/12/30 11:11:35;;;;;;;8.50;4.22;;;6.00;99.90;;;;;;5084118;28;20393;-49
2020/12/30 11:14:01;;;;;;;10.77;5.40;;;5.80;99.90;;;;;;5078366;28;20808;-49
2020/12/30 11:16:27;;;;;;;6.03;3.28;;;5.80;99.90;;;;;;5075263;28;20437;-49
2020/12/30 11:18:53;;;;;;;8.45;4.85;;;5.70;99.90;;;;;;5076108;28;20469;-49
2020/12/30 11:21:19;;;;;;;9.48;4.30;;;5.60;99.90;;;;;;5084383;28;20419;-57
2020/12/30 11:23:45;;;;;;;5.63;2.70;;;5.50;99.90;;;;;;5078362;28;20398;-49
2020/12/30 11:26:11;;;;;;;8.00;3.00;;;5.70;99.90;;;;;;5085826;28;20831;-49
2020/12/30 11:28:36;;;;;;;6.20;2.90;;;5.80;99.90;;;;;;5075749;28;20390;-50
2020/12/30 11:31:03;;;;;;;6.18;2.90;;;5.90;99.90;;;;;;5074324;28;20808;-49
2020/12/30 11:33:28;;;;;;;7.20;3.60;;;5.90;99.90;;;;;;5079803;28;20430;-49
2020/12/30 11:35:54;;;;;;;9.40;4.00;;;5.90;99.90;;;;;;5078892;28;20480;-49
2020/12/30 11:38:20;;;;;;;8.30;3.97;;;5.90;99.90;;;;;;5073137;28;20397;-60
2020/12/30 11:40:45;;;;;;;5.97;3.30;;;6.20;99.90;;;;;;5085839;28;20688;-49
2020/12/30 11:43:12;;;;;;;10.50;4.80;;;6.40;99.90;;;;;;5074636;28;20394;-49
2020/12/30 11:45:37;;;;;;;7.95;3.78;;;6.50;99.90;;;;;;5076792;28;20405;-49
2020/12/30 11:48:03;;;;;;;8.15;3.92;;;6.40;99.90;;;;;;5074277;28;20376;-49
2020/12/30 11:50:32;;;;;;;7.60;3.35;;;6.50;99.90;;;;;;5077899;28;20406;-50
2020/12/30 11:52:58;;;;;;;5.85;2.33;;;6.60;99.90;;;;;;5072248;28;20434;-50
2020/12/30 11:55:25;;;;;;;5.00;2.50;;;6.80;99.90;;;;;;5071723;28;20426;-50
2020/12/30 11:57:51;;;;;;;4.20;1.67;;;6.60;99.90;;;;;;5081635;28;20911;-50
2020/12/30 12:00:17;;;;;;;7.57;2.60;;;6.50;99.90;;;;;;5081070;28;20406;-50
2020/12/30 12:02:42;;;;;;;5.80;1.93;;;6.50;99.90;;;;;;5083137;28;20464;-50
2020/12/30 12:05:12;;;;;;;7.47;2.85;;;6.60;99.90;;;;;;5094705;28;20757;-53
2020/12/30 12:07:38;;;;;;;9.50;4.55;;;6.50;99.90;;;;;;5090691;28;20392;-50
2020/12/30 12:10:08;;;;;;;9.15;4.22;;;6.40;99.90;;;;;;5108922;28;20917;-51
2020/12/30 12:12:35;;;;;;;10.18;4.07;;;6.50;99.90;;;;;;5088128;28;20521;-51
2020/12/30 12:15:02;;;;;;;6.88;2.58;;;6.50;99.90;;;;;;5093325;28;20407;-58
2020/12/30 12:17:27;;;;;;;5.13;1.42;;;6.60;99.90;;;;;;5079820;28;20403;-51
2020/12/30 12:19:53;;;;;;;4.50;1.50;;;6.30;99.90;;;;;;5099104;28;20411;-51
2020/12/30 12:22:19;;;;;;;4.22;1.42;;;6.40;99.90;;;;;;5102778;28;20419;-58
2020/12/30 12:24:44;;;;;;;4.50;1.50;;;6.20;99.90;;;;;;5107651;28;20726;-56
2020/12/30 12:27:10;;;;;;;4.03;1.43;;;6.40;99.90;;;;;;5094817;28;20399;-57
2020/12/30 12:29:35;;;;;;;3.33;1.35;;;6.30;99.90;;;;;;5100874;28;20380;-50
2020/12/30 12:32:09;;;;;;;3.90;1.50;;;6.40;99.90;;;;;;5098318;28;20869;-52
2020/12/30 12:34:36;;;;;;;4.82;1.13;;;6.50;99.90;;;;;;5104322;28;20860;-49
2020/12/30 12:37:03;;;;;;;7.80;2.90;;;6.40;99.90;;;;;;5104622;28;20421;-56
2020/12/30 12:39:29;;;;;;;4.15;1.00;;;6.50;99.90;;;;;;5102705;28;20396;-51
2020/12/30 12:41:56;;;;;;;3.90;1.13;;;6.40;99.90;;;;;;5101390;28;20392;-53
2020/12/30 12:44:23;;;;;;;3.03;1.03;;;6.30;99.90;;;;;;5100453;28;20807;-50
2020/12/30 12:46:49;;;;;;;3.40;1.00;;;6.20;99.90;;;;;;5098100;28;20404;-53
2020/12/30 12:49:14;;;;;;;6.05;1.50;;;6.10;99.90;;;;;;5080944;28;20401;-51
2020/12/30 12:51:46;;;;;;;3.30;1.23;;;6.10;99.90;;;;;;5107630;28;20393;-50
2020/12/30 12:54:12;;;;;;;6.03;1.67;;;6.20;99.90;;;;;;5107481;28;20503;-51
2020/12/30 12:56:37;;;;;;;4.30;1.30;;;6.40;99.90;;;;;;5100928;28;20405;-51
2020/12/30 12:59:03;;;;;;;3.95;1.40;;;6.50;99.90;;;;;;5099261;28;20926;-51